This is the latest recevied weather packets stored in our database for station/object DB0HOL-4. If no packets are shown the sender has not sent any weather packets the latest 10 day(s).
| Time | Temp. | Humidity | Pressure | Rain* | Wind** | Luminosity | Snow |
|---|---|---|---|---|---|---|---|
| 1777775197 | 15° C | 76% | 1011.1 hPa | 0 mm | - | 0 W/m² | - |
| 1777773397 | 14.44° C | 76% | 1011.5 hPa | 0 mm | - | 0 W/m² | - |
| 1777771597 | 15° C | 77% | 1011.5 hPa | 0 mm | - | 0 W/m² | - |
| 1777769797 | 15° C | 77% | 1011.8 hPa | 0 mm | - | 0 W/m² | - |
| 1777767997 | 15.56° C | 77% | 1011.8 hPa | 0 mm | - | 0 W/m² | - |
| 1777766197 | 15.56° C | 76% | 1012.1 hPa | 0 mm | - | 0 W/m² | - |
| 1777764397 | 16.11° C | 72% | 1012.8 hPa | 0 mm | - | 0 W/m² | - |
| 1777758997 | 18.89° C | 53% | 1012.1 hPa | 0 mm | - | 0 W/m² | - |
| 1777757197 | 18.89° C | 52% | 1012.5 hPa | 0 mm | - | 0 W/m² | - |
| 1777755397 | 18.89° C | 52% | 1012.8 hPa | 0 mm | - | 0 W/m² | - |
| 1777753597 | 20° C | 50% | 1012.8 hPa | 0 mm | - | 0 W/m² | - |
| 1777751797 | 20° C | 50% | 1012.8 hPa | 0 mm | - | 0 W/m² | - |
| 1777749996 | 20.56° C | 49% | 1012.5 hPa | 0 mm | - | 4 W/m² | - |
| 1777748197 | 21.11° C | 48% | 1012.8 hPa | 0 mm | - | 104 W/m² | - |
| 1777746397 | 21.67° C | 48% | 1012.8 hPa | 0 mm | - | 385 W/m² | - |
| 1777744597 | 22.22° C | 48% | 1012.8 hPa | 0 mm | - | 346 W/m² | - |
| 1777742797 | 22.22° C | 48% | 1012.8 hPa | 0 mm | - | 910 W/m² | - |
| 1777740996 | 22.22° C | 48% | 1013.2 hPa | 0 mm | - | 110 W/m² | - |
| 1777739197 | 22.22° C | 48% | 1013.8 hPa | 0 mm | - | 188 W/m² | - |
| 1777737396 | 22.78° C | 46% | 1013.8 hPa | 0 mm | - | 273 W/m² | - |
| 1777735597 | 22.78° C | 47% | 1014.2 hPa | 0 mm | - | 291 W/m² | - |
| 1777733798 | 22.78° C | 44% | 1014.9 hPa | 0 mm | - | 469 W/m² | - |
| 1777731996 | 22.78° C | 43% | 1014.9 hPa | 0 mm | - | 170 W/m² | - |
| 1777730197 | 22.22° C | 44% | 1015.5 hPa | 0 mm | - | 524 W/m² | - |
| 1777728397 | 22.78° C | 47% | 1015.9 hPa | 0 mm | - | 572 W/m² | - |
* Rain latest hour (hover to see other rain measurements)
** Current wind speed in m/s (hover to see current wind gust speed)